Terminal Aerodrome Forecast
Issued by NWS Lake Charles, LA

Home | Current Version | Previous Version | Text Only | Print | Product List | Glossary On
Versions: 1 2 3 4 5 6 7 8 9 10 11 12 13 14 15 16 17 18 19 20 21 22 23
000
FTUS44 KLCH 230500
TAFAEX
TAF
KAEX 230525Z 2306/2406 VRB03KT P6SM SCT015
      TEMPO 2306/2308 BKN015
     FM230800 VRB03KT 4SM BR BKN008
     FM231000 VRB03KT 2SM BR VCSH OVC004
      TEMPO 2310/2313 1SM BR OVC002
     FM231600 28006KT P6SM VCTS OVC015CB
     FM240200 31012G18KT P6SM OVC008=

USA.gov is the U.S. government's official web portal to all federal, state and local government web resources and services.